createdAt,value
2022-11-03T00:00:13.926Z,9.85
2022-11-03T00:00:35.721Z,9.93
2022-11-03T00:00:57.527Z,9.70
2022-11-03T00:01:19.734Z,9.52
2022-11-03T00:01:45.772Z,10.10
2022-11-03T00:02:07.703Z,10.57
2022-11-03T00:02:29.986Z,9.40
2022-11-03T00:02:54.511Z,9.90
2022-11-03T00:03:16.669Z,9.85
2022-11-03T00:03:38.787Z,9.95
2022-11-03T00:04:00.931Z,10.07
2022-11-03T00:04:23.746Z,10.02
2022-11-03T00:04:45.879Z,10.10
2022-11-03T00:05:27.869Z,9.45
2022-11-03T00:06:05.353Z,9.82
2022-11-03T00:06:27.131Z,10.80
2022-11-03T00:06:53.259Z,10.20
2022-11-03T00:07:21.717Z,10.25
2022-11-03T00:07:43.838Z,10.00
2022-11-03T00:08:06.140Z,10.10
2022-11-03T00:08:28.267Z,10.18
2022-11-03T00:08:50.032Z,10.75
2022-11-03T00:09:13.123Z,10.45
2022-11-03T00:09:35.289Z,10.18
2022-11-03T00:09:57.420Z,10.18
2022-11-03T00:10:19.582Z,10.25
2022-11-03T00:10:41.777Z,10.35
2022-11-03T00:11:14.231Z,10.30
2022-11-03T00:11:37.587Z,10.43
2022-11-03T00:11:59.304Z,10.90
2022-11-03T00:12:21.425Z,10.55
2022-11-03T00:12:43.199Z,10.18
2022-11-03T00:13:05.670Z,9.60
2022-11-03T00:13:27.983Z,10.02
2022-11-03T00:13:50.170Z,10.30
2022-11-03T00:14:12.786Z,10.45
2022-11-03T00:14:34.532Z,10.40
2022-11-03T00:14:56.282Z,10.98
2022-11-03T00:15:18.372Z,10.90
2022-11-03T00:15:48.388Z,10.48
2022-11-03T00:16:11.912Z,10.88
2022-11-03T00:16:34.195Z,10.43
2022-11-03T00:16:56.287Z,10.55
2022-11-03T00:17:18.108Z,10.70
2022-11-03T00:17:40.319Z,10.60
2022-11-03T00:18:02.475Z,10.80
2022-11-03T00:18:24.429Z,10.70
2022-11-03T00:18:46.580Z,11.00
2022-11-03T00:19:09.176Z,10.02
2022-11-03T00:19:31.518Z,10.10
2022-11-03T00:19:53.238Z,10.68
2022-11-03T00:20:15.431Z,10.43
2022-11-03T00:20:37.532Z,10.95
2022-11-03T00:21:10.666Z,10.50
2022-11-03T00:21:33.067Z,10.60
2022-11-03T00:21:54.928Z,10.43
2022-11-03T00:22:17.091Z,10.85
2022-11-03T00:22:38.820Z,10.57
2022-11-03T00:23:00.941Z,11.10
2022-11-03T00:23:24.312Z,10.73
2022-11-03T00:23:46.970Z,10.70
2022-11-03T00:24:09.300Z,10.93
2022-11-03T00:24:31.054Z,10.80
2022-11-03T00:24:53.213Z,10.85
2022-11-03T00:25:15.373Z,11.40
2022-11-03T00:25:37.474Z,10.60
2022-11-03T00:26:19.049Z,10.63
2022-11-03T00:26:41.521Z,9.95
2022-11-03T00:27:03.394Z,10.35
2022-11-03T00:27:25.121Z,10.68
2022-11-03T00:27:46.925Z,10.63
2022-11-03T00:28:09.047Z,10.77
2022-11-03T00:28:32.351Z,10.20
2022-11-03T00:28:55.575Z,10.57
2022-11-03T00:29:17.764Z,10.77
2022-11-03T00:29:39.892Z,11.27
2022-11-03T00:30:02.016Z,10.43
2022-11-03T00:30:23.775Z,10.77
2022-11-03T00:30:45.490Z,10.35
2022-11-03T00:31:13.285Z,10.25
2022-11-03T00:31:36.544Z,10.55
2022-11-03T00:31:58.719Z,10.43
2022-11-03T00:32:20.914Z,10.68
2022-11-03T00:32:43.017Z,10.55
2022-11-03T00:33:05.357Z,10.05
2022-11-03T00:33:27.904Z,10.07
2022-11-03T00:33:50.307Z,10.27
2022-11-03T00:34:12.533Z,10.30
2022-11-03T00:34:34.722Z,10.70
2022-11-03T00:34:56.971Z,9.90
2022-11-03T00:35:18.698Z,10.10
2022-11-03T00:35:40.415Z,10.07
2022-11-03T00:36:03.036Z,9.90
2022-11-03T00:36:28.799Z,10.43
2022-11-03T00:36:50.947Z,9.90
2022-11-03T00:37:12.745Z,9.45
2022-11-03T00:37:34.881Z,10.43
2022-11-03T00:37:56.588Z,11.40
2022-11-03T00:38:18.759Z,10.73
2022-11-03T00:38:41.172Z,10.05
2022-11-03T00:39:04.253Z,10.27
2022-11-03T00:39:26.045Z,10.50
2022-11-03T00:39:48.140Z,10.13
2022-11-03T00:40:11.120Z,9.82
2022-11-03T00:40:32.857Z,10.07
2022-11-03T00:40:55.556Z,9.70
2022-11-03T00:41:18.373Z,10.00
2022-11-03T00:41:40.844Z,10.10
2022-11-03T00:42:02.729Z,10.13
2022-11-03T00:42:24.965Z,10.77
2022-11-03T00:42:47.132Z,10.60
2022-11-03T00:43:09.248Z,10.38
2022-11-03T00:43:32.482Z,10.75
2022-11-03T00:43:55.092Z,10.80
2022-11-03T00:44:17.218Z,10.80
2022-11-03T00:44:39.313Z,10.38
2022-11-03T00:45:01.440Z,9.73
2022-11-03T00:45:23.173Z,10.40
2022-11-03T00:45:45.291Z,10.70
2022-11-03T00:46:08.638Z,11.02
2022-11-03T00:46:30.798Z,11.07
2022-11-03T00:46:52.586Z,10.80
2022-11-03T00:47:14.355Z,10.82
2022-11-03T00:47:56.096Z,11.60
2022-11-03T00:48:30.941Z,10.70
2022-11-03T00:48:53.162Z,10.55
2022-11-03T00:49:15.339Z,10.63
2022-11-03T00:49:37.591Z,11.00
2022-11-03T00:49:59.797Z,11.35
2022-11-03T00:50:21.890Z,10.63
2022-11-03T00:50:43.661Z,10.55
2022-11-03T00:51:11.588Z,10.52
2022-11-03T00:51:35.082Z,10.90
2022-11-03T00:51:57.254Z,10.20
2022-11-03T00:52:19.353Z,10.35
2022-11-03T00:52:41.113Z,9.93
2022-11-03T00:53:03.332Z,10.20
2022-11-03T00:53:25.591Z,9.98
2022-11-03T00:53:57.357Z,9.98
2022-11-03T00:54:19.448Z,10.35
2022-11-03T00:54:45.241Z,10.68
2022-11-03T00:55:07.710Z,10.43
2022-11-03T00:55:29.836Z,10.52
2022-11-03T00:55:51.991Z,10.45
2022-11-03T00:56:19.714Z,10.30
2022-11-03T00:56:42.665Z,9.90
2022-11-03T00:57:04.820Z,9.88
2022-11-03T00:57:27.664Z,9.85
2022-11-03T00:57:52.808Z,9.35
2022-11-03T00:58:14.932Z,9.70
2022-11-03T00:58:37.142Z,10.32
2022-11-03T00:59:00.248Z,10.13
2022-11-03T00:59:22.339Z,10.57
2022-11-03T00:59:44.053Z,9.85
2022-11-03T01:00:06.884Z,10.32
2022-11-03T01:00:28.997Z,10.82
2022-11-03T01:00:51.230Z,10.38
2022-11-03T01:01:14.580Z,10.23
2022-11-03T01:01:43.981Z,10.43
2022-11-03T01:02:07.841Z,9.63
2022-11-03T01:02:30.187Z,9.63
2022-11-03T01:02:52.380Z,10.80
2022-11-03T01:03:14.503Z,10.23
2022-11-03T01:03:38.778Z,9.55
2022-11-03T01:04:19.864Z,9.95
2022-11-03T01:05:00.874Z,10.18
2022-11-03T01:05:41.502Z,9.93
2022-11-03T01:06:24.887Z,9.90
2022-11-03T01:06:50.930Z,10.02
2022-11-03T01:07:13.172Z,10.07
2022-11-03T01:07:34.916Z,9.30
2022-11-03T01:07:57.106Z,10.13
2022-11-03T01:08:20.431Z,10.02
2022-11-03T01:08:44.628Z,10.52
2022-11-03T01:09:06.912Z,10.40
2022-11-03T01:09:36.127Z,10.63
2022-11-03T01:09:57.847Z,10.40
2022-11-03T01:10:19.997Z,10.18
2022-11-03T01:11:02.041Z,10.05
2022-11-03T01:11:43.445Z,10.27
2022-11-03T01:12:14.933Z,10.00
2022-11-03T01:12:37.017Z,11.15
2022-11-03T01:12:58.732Z,10.32
2022-11-03T01:13:20.874Z,10.23
2022-11-03T01:13:42.661Z,10.57
2022-11-03T01:14:05.521Z,10.57
2022-11-03T01:14:29.508Z,10.30
2022-11-03T01:14:53.010Z,10.30
2022-11-03T01:15:14.963Z,10.25
2022-11-03T01:15:37.186Z,10.48
2022-11-03T01:15:59.361Z,11.07
2022-11-03T01:16:21.805Z,11.07
2022-11-03T01:16:44.291Z,10.60
2022-11-03T01:17:10.584Z,10.55
2022-11-03T01:17:32.697Z,10.55
2022-11-03T01:17:54.812Z,10.40
2022-11-03T01:18:17.037Z,10.02
2022-11-03T01:18:39.170Z,10.30
2022-11-03T01:19:01.199Z,10.52
2022-11-03T01:19:23.817Z,10.70
2022-11-03T01:19:46.236Z,10.65
2022-11-03T01:20:08.644Z,11.43
2022-11-03T01:20:30.364Z,11.07
2022-11-03T01:20:56.631Z,10.93
2022-11-03T01:21:19.184Z,11.52
2022-11-03T01:21:40.908Z,12.32
2022-11-03T01:22:06.446Z,11.95
2022-11-03T01:22:31.809Z,11.77
2022-11-03T01:22:53.959Z,11.30
2022-11-03T01:23:16.128Z,11.02
2022-11-03T01:23:38.420Z,11.30
2022-11-03T01:24:04.620Z,11.35
2022-11-03T01:24:26.837Z,12.32
2022-11-03T01:24:49.056Z,12.10
2022-11-03T01:25:11.185Z,11.70
2022-11-03T01:25:33.555Z,13.15
2022-11-03T01:25:55.273Z,14.00
2022-11-03T01:26:17.444Z,14.10
2022-11-03T01:26:39.214Z,13.52
2022-11-03T01:27:01.096Z,13.10
2022-11-03T01:27:23.455Z,12.55
2022-11-03T01:27:45.633Z,12.20
2022-11-03T01:28:07.771Z,13.18
2022-11-03T01:28:29.881Z,13.25
2022-11-03T01:28:51.986Z,13.93
2022-11-03T01:29:14.123Z,13.00
2022-11-03T01:29:36.340Z,12.52
2022-11-03T01:29:58.440Z,12.70
2022-11-03T01:30:20.534Z,12.88
2022-11-03T01:30:42.695Z,12.30
2022-11-03T01:31:05.509Z,11.65
2022-11-03T01:31:28.170Z,10.93
2022-11-03T01:31:50.440Z,11.55
2022-11-03T01:32:12.529Z,11.40
2022-11-03T01:32:34.322Z,11.05
2022-11-03T01:32:56.051Z,11.13
2022-11-03T01:33:18.151Z,10.43
2022-11-03T01:33:40.617Z,10.32
2022-11-03T01:34:02.763Z,10.48
2022-11-03T01:34:24.592Z,10.98
2022-11-03T01:34:46.820Z,10.75
2022-11-03T01:35:08.993Z,10.40
2022-11-03T01:35:31.262Z,10.95
2022-11-03T01:35:53.913Z,10.60
2022-11-03T01:36:16.622Z,10.85
2022-11-03T01:36:38.342Z,10.88
2022-11-03T01:37:00.321Z,10.63
2022-11-03T01:37:22.107Z,10.80
2022-11-03T01:37:43.835Z,11.02
2022-11-03T01:38:05.990Z,10.85
2022-11-03T01:38:31.038Z,11.00
2022-11-03T01:38:54.389Z,10.70
2022-11-03T01:39:17.464Z,10.48
2022-11-03T01:39:39.625Z,10.75
2022-11-03T01:40:01.781Z,10.40
2022-11-03T01:40:24.016Z,10.57
2022-11-03T01:40:46.174Z,10.95
2022-11-03T01:41:12.808Z,10.00
2022-11-03T01:41:34.580Z,10.07
2022-11-03T01:41:56.690Z,10.50
2022-11-03T01:42:18.457Z,10.27
2022-11-03T01:42:40.561Z,10.18
2022-11-03T01:43:18.916Z,10.15
2022-11-03T01:43:41.435Z,9.57
2022-11-03T01:44:09.073Z,9.23
2022-11-03T01:44:35.766Z,9.95
2022-11-03T01:44:57.907Z,10.55
2022-11-03T01:45:20.339Z,10.05
2022-11-03T01:45:42.491Z,10.20
2022-11-03T01:46:07.245Z,10.13
2022-11-03T01:46:29.981Z,10.05
2022-11-03T01:47:00.935Z,10.82
2022-11-03T01:47:27.865Z,10.60
2022-11-03T01:47:50.041Z,10.43
2022-11-03T01:48:12.689Z,10.55
2022-11-03T01:48:35.114Z,10.30
2022-11-03T01:49:09.776Z,10.43
2022-11-03T01:49:46.855Z,10.43
2022-11-03T01:50:10.951Z,10.32
2022-11-03T01:50:32.828Z,10.10
2022-11-03T01:50:55.104Z,10.45
2022-11-03T01:51:18.350Z,9.90
2022-11-03T01:51:41.674Z,10.05
2022-11-03T01:52:42.928Z,10.40
2022-11-03T01:53:05.404Z,10.27
2022-11-03T01:53:30.378Z,10.90
2022-11-03T01:53:54.098Z,9.90
2022-11-03T01:54:21.495Z,10.13
2022-11-03T01:54:45.263Z,10.15
2022-11-03T01:55:18.071Z,10.07
2022-11-03T01:55:40.280Z,10.07
2022-11-03T01:56:03.896Z,10.13
2022-11-03T01:56:26.518Z,10.48
2022-11-03T01:56:48.786Z,9.98
2022-11-03T01:57:17.267Z,10.23
2022-11-03T01:57:42.120Z,10.00
2022-11-03T01:58:06.427Z,9.65
2022-11-03T01:58:33.631Z,10.65
2022-11-03T01:58:56.330Z,10.52
2022-11-03T01:59:19.265Z,10.15
2022-11-03T01:59:41.902Z,10.50
2022-11-03T02:00:05.730Z,10.15
2022-11-03T02:00:28.012Z,10.77
2022-11-03T02:00:53.099Z,10.90
2022-11-03T02:01:15.385Z,10.10
2022-11-03T02:01:37.963Z,10.13
2022-11-03T02:02:00.458Z,10.38
2022-11-03T02:02:22.363Z,9.95
2022-11-03T02:02:44.817Z,10.13
2022-11-03T02:03:07.249Z,10.45
2022-11-03T02:03:32.865Z,10.68
2022-11-03T02:03:58.509Z,10.02
2022-11-03T02:04:28.325Z,10.20
2022-11-03T02:04:50.179Z,10.38
2022-11-03T02:05:13.604Z,10.93
2022-11-03T02:05:35.992Z,10.75
2022-11-03T02:05:58.681Z,10.48
2022-11-03T02:06:23.227Z,10.25
2022-11-03T02:06:45.869Z,10.07
2022-11-03T02:07:17.590Z,10.35
2022-11-03T02:07:51.554Z,10.57
2022-11-03T02:08:27.898Z,10.23
2022-11-03T02:08:52.541Z,10.88
2022-11-03T02:09:14.682Z,10.68
2022-11-03T02:09:36.857Z,10.80
2022-11-03T02:09:59.064Z,10.63
2022-11-03T02:10:21.469Z,10.63
2022-11-03T02:10:43.848Z,10.30
2022-11-03T02:11:26.033Z,10.55
2022-11-03T02:12:06.375Z,10.65
2022-11-03T02:12:28.781Z,10.73
2022-11-03T02:12:50.516Z,10.98
2022-11-03T02:13:30.719Z,11.15
2022-11-03T02:13:52.569Z,10.88
2022-11-03T02:14:14.425Z,10.93
2022-11-03T02:14:37.903Z,11.05
2022-11-03T02:15:02.588Z,11.10
2022-11-03T02:15:24.959Z,10.73
2022-11-03T02:15:50.574Z,10.95
2022-11-03T02:16:12.795Z,11.20
2022-11-03T02:16:34.633Z,11.10
2022-11-03T02:16:58.751Z,11.13
2022-11-03T02:17:21.622Z,11.07
2022-11-03T02:17:44.779Z,11.35
2022-11-03T02:18:07.293Z,11.38
2022-11-03T02:18:32.631Z,11.43
2022-11-03T02:18:55.429Z,10.70
2022-11-03T02:19:39.791Z,10.52
2022-11-03T02:20:06.796Z,11.00
2022-11-03T02:20:30.029Z,10.75
2022-11-03T02:21:03.725Z,10.50
2022-11-03T02:21:31.262Z,10.40
2022-11-03T02:22:03.570Z,11.00
2022-11-03T02:22:25.730Z,11.07
2022-11-03T02:23:06.528Z,11.15
2022-11-03T02:23:42.015Z,11.38
2022-11-03T02:24:11.809Z,11.27
2022-11-03T02:24:54.304Z,11.10
2022-11-03T02:25:36.237Z,11.32
2022-11-03T02:25:59.521Z,11.30
2022-11-03T02:26:22.059Z,11.18
2022-11-03T02:26:46.331Z,11.23
2022-11-03T02:27:08.188Z,11.10
2022-11-03T02:27:30.312Z,11.27
2022-11-03T02:27:52.468Z,11.05
2022-11-03T02:28:17.311Z,11.48
2022-11-03T02:28:39.188Z,11.43
2022-11-03T02:29:01.030Z,11.02
2022-11-03T02:29:22.981Z,11.02
2022-11-03T02:29:45.294Z,11.63
2022-11-03T02:30:08.826Z,11.70
2022-11-03T02:30:53.665Z,11.65
2022-11-03T02:31:18.059Z,11.40
2022-11-03T02:31:45.127Z,11.25
2022-11-03T02:32:27.524Z,11.95
2022-11-03T02:32:56.846Z,10.95
2022-11-03T02:33:52.578Z,11.88
2022-11-03T02:34:23.678Z,11.77
2022-11-03T02:34:50.282Z,10.68
2022-11-03T02:35:30.415Z,11.65
2022-11-03T02:36:15.737Z,11.70
2022-11-03T02:36:42.073Z,12.13
2022-11-03T02:37:10.053Z,12.15
2022-11-03T02:37:37.773Z,11.88
2022-11-03T02:38:01.106Z,11.88
2022-11-03T02:38:27.012Z,12.07
2022-11-03T02:39:22.450Z,11.93
2022-11-03T02:39:46.728Z,13.73
2022-11-03T02:40:11.277Z,13.57
2022-11-03T02:40:39.571Z,14.70
2022-11-03T02:41:04.466Z,15.63
2022-11-03T02:41:27.203Z,16.65
2022-11-03T02:41:49.882Z,17.90
2022-11-03T02:42:13.135Z,17.30
2022-11-03T02:42:36.588Z,16.83
2022-11-03T02:42:59.477Z,16.38
2022-11-03T02:43:23.959Z,15.40
2022-11-03T02:43:47.040Z,15.00
2022-11-03T02:44:13.178Z,15.57
2022-11-03T02:44:36.869Z,14.48
2022-11-03T02:45:01.022Z,14.60
2022-11-03T02:45:25.705Z,14.82
2022-11-03T02:45:48.981Z,15.38
2022-11-03T02:46:13.603Z,15.35
2022-11-03T02:46:37.052Z,15.68
2022-11-03T02:47:02.079Z,16.33
2022-11-03T02:47:24.537Z,18.20
2022-11-03T02:47:47.535Z,18.98
2022-11-03T02:48:09.838Z,21.85
2022-11-03T02:48:32.586Z,21.20
2022-11-03T02:48:54.301Z,19.50
2022-11-03T02:49:16.315Z,19.55
2022-11-03T02:49:41.830Z,20.88
2022-11-03T02:50:08.607Z,23.02
2022-11-03T02:50:32.603Z,22.63
2022-11-03T02:50:55.368Z,21.60
2022-11-03T02:51:17.509Z,21.55
2022-11-03T02:51:40.756Z,20.92
2022-11-03T02:52:04.969Z,18.88
2022-11-03T02:52:37.376Z,18.55
2022-11-03T02:52:59.987Z,18.52
2022-11-03T02:53:22.245Z,17.48
2022-11-03T02:53:52.268Z,17.73
2022-11-03T02:54:19.936Z,16.95
2022-11-03T02:54:44.822Z,14.88
2022-11-03T02:55:13.100Z,14.10
2022-11-03T02:55:39.346Z,13.82
2022-11-03T02:56:03.695Z,13.68
2022-11-03T02:56:25.888Z,13.43
2022-11-03T02:56:52.518Z,13.52
2022-11-03T02:57:21.346Z,12.73
2022-11-03T02:57:49.402Z,12.73
2022-11-03T02:58:11.624Z,12.18
2022-11-03T02:58:53.494Z,12.07
2022-11-03T02:59:29.656Z,11.70
2022-11-03T02:59:55.121Z,11.07
2022-11-03T03:00:17.826Z,12.27
2022-11-03T03:00:44.082Z,11.30
2022-11-03T03:01:29.218Z,12.30
2022-11-03T03:01:55.826Z,11.30
2022-11-03T03:02:21.719Z,11.27
2022-11-03T03:02:52.505Z,11.23
2022-11-03T03:03:17.616Z,10.60
2022-11-03T03:03:44.463Z,10.55
2022-11-03T03:04:10.262Z,10.95
2022-11-03T03:04:36.663Z,10.90
2022-11-03T03:05:01.859Z,11.05
2022-11-03T03:05:25.969Z,10.90
2022-11-03T03:05:49.886Z,11.32
2022-11-03T03:06:17.250Z,11.27
2022-11-03T03:06:43.560Z,10.77
2022-11-03T03:07:14.897Z,10.23
2022-11-03T03:07:41.688Z,10.23
2022-11-03T03:08:06.375Z,10.57
2022-11-03T03:08:30.576Z,10.55
2022-11-03T03:08:57.748Z,10.05
2022-11-03T03:09:22.404Z,9.88
2022-11-03T03:09:46.817Z,10.55
2022-11-03T03:10:12.436Z,10.57
2022-11-03T03:10:36.005Z,10.70
2022-11-03T03:11:00.431Z,11.13
2022-11-03T03:11:37.623Z,10.90
2022-11-03T03:12:01.300Z,11.38
2022-11-03T03:12:24.396Z,11.07
2022-11-03T03:12:53.110Z,11.10
2022-11-03T03:13:16.807Z,11.15
2022-11-03T03:13:39.663Z,10.40
2022-11-03T03:14:01.771Z,10.98
2022-11-03T03:14:29.700Z,11.20
2022-11-03T03:14:52.922Z,11.48
2022-11-03T03:15:15.549Z,11.45
2022-11-03T03:15:42.157Z,10.80
2022-11-03T03:16:25.949Z,11.07
2022-11-03T03:17:01.365Z,10.30
2022-11-03T03:17:52.844Z,10.90
2022-11-03T03:18:29.372Z,10.95
2022-11-03T03:19:00.629Z,10.63
2022-11-03T03:19:44.900Z,10.40
2022-11-03T03:20:16.772Z,10.32
2022-11-03T03:20:51.046Z,10.68
2022-11-03T03:21:15.128Z,9.88
2022-11-03T03:21:40.305Z,10.40
2022-11-03T03:22:10.647Z,10.43
2022-11-03T03:22:49.959Z,10.38
2022-11-03T03:23:14.819Z,9.88
2022-11-03T03:23:48.065Z,10.05
2022-11-03T03:24:16.031Z,10.02
2022-11-03T03:24:56.276Z,10.05
2022-11-03T03:25:35.084Z,9.73
2022-11-03T03:26:18.354Z,10.02
2022-11-03T03:26:45.501Z,9.77
2022-11-03T03:27:11.283Z,9.73
2022-11-03T03:27:35.138Z,10.52
2022-11-03T03:28:05.938Z,10.35
2022-11-03T03:28:50.625Z,10.93
2022-11-03T03:29:15.817Z,9.77
2022-11-03T03:29:40.851Z,10.27
2022-11-03T03:30:06.720Z,10.45
2022-11-03T03:30:30.621Z,9.80
2022-11-03T03:30:54.823Z,10.13
2022-11-03T03:31:18.856Z,9.65
2022-11-03T03:31:45.485Z,9.77
2022-11-03T03:32:09.399Z,10.27
2022-11-03T03:32:37.067Z,10.18
2022-11-03T03:33:00.248Z,9.95
2022-11-03T03:33:23.251Z,9.65
2022-11-03T03:33:47.975Z,10.27
2022-11-03T03:34:31.293Z,9.45
2022-11-03T03:34:54.092Z,10.20
2022-11-03T03:35:22.868Z,10.00
2022-11-03T03:35:46.272Z,9.95
2022-11-03T03:36:13.509Z,10.27
2022-11-03T03:36:36.120Z,10.07
2022-11-03T03:36:59.739Z,9.95
2022-11-03T03:37:23.943Z,10.10
2022-11-03T03:37:48.022Z,10.25
2022-11-03T03:38:16.577Z,9.90
2022-11-03T03:38:43.781Z,9.90
2022-11-03T03:39:08.196Z,10.07
2022-11-03T03:39:32.512Z,10.18
2022-11-03T03:39:58.365Z,10.35
2022-11-03T03:40:30.992Z,10.18
2022-11-03T03:40:55.891Z,10.50
2022-11-03T03:41:22.127Z,10.55
2022-11-03T03:41:46.600Z,10.27
2022-11-03T03:42:09.840Z,10.50
2022-11-03T03:42:33.319Z,10.18
2022-11-03T03:42:55.656Z,10.52
2022-11-03T03:43:18.346Z,11.23
2022-11-03T03:43:41.933Z,10.98
2022-11-03T03:44:06.360Z,10.60
2022-11-03T03:44:28.776Z,10.82
2022-11-03T03:44:51.548Z,10.63
2022-11-03T03:45:14.440Z,10.45
2022-11-03T03:45:36.709Z,11.25
2022-11-03T03:46:01.573Z,11.50
2022-11-03T03:46:24.567Z,11.25
2022-11-03T03:46:52.082Z,11.13
2022-11-03T03:47:30.285Z,11.43
2022-11-03T03:47:57.308Z,10.60
2022-11-03T03:48:19.920Z,10.82
2022-11-03T03:48:43.000Z,11.10
2022-11-03T03:49:05.523Z,10.82
2022-11-03T03:49:27.500Z,10.90
2022-11-03T03:49:49.639Z,11.02
2022-11-03T03:50:11.942Z,11.15
2022-11-03T03:50:37.377Z,10.63
2022-11-03T03:51:01.864Z,11.02
2022-11-03T03:51:26.389Z,10.55
2022-11-03T03:51:49.051Z,10.80
2022-11-03T03:52:11.852Z,10.63
2022-11-03T03:52:34.909Z,10.45
2022-11-03T03:53:03.928Z,10.30
2022-11-03T03:53:28.880Z,10.32
2022-11-03T03:53:52.478Z,10.73
2022-11-03T03:54:14.601Z,10.40
2022-11-03T03:54:37.229Z,10.82
2022-11-03T03:54:59.426Z,10.57
2022-11-03T03:55:51.768Z,10.77
2022-11-03T03:56:13.526Z,10.75
2022-11-03T03:56:51.266Z,10.77
2022-11-03T03:57:16.098Z,10.27
2022-11-03T03:57:38.329Z,10.32
2022-11-03T03:58:00.640Z,10.82
2022-11-03T03:58:22.471Z,10.27
2022-11-03T03:58:44.607Z,10.05
2022-11-03T03:59:06.426Z,9.90
2022-11-03T03:59:28.741Z,9.75
2022-11-03T03:59:50.776Z,10.48
2022-11-03T04:00:16.094Z,10.15
2022-11-03T04:00:40.101Z,10.15
2022-11-03T04:01:02.034Z,10.07
2022-11-03T04:01:23.907Z,10.52
2022-11-03T04:01:46.212Z,10.63
2022-11-03T04:02:08.738Z,11.05
2022-11-03T04:02:30.566Z,10.77
2022-11-03T04:02:52.373Z,10.27
2022-11-03T04:03:17.712Z,10.07
2022-11-03T04:03:39.895Z,9.80
2022-11-03T04:04:02.091Z,9.98
2022-11-03T04:04:24.379Z,10.20
2022-11-03T04:04:46.105Z,9.82
2022-11-03T04:05:07.986Z,9.82
2022-11-03T04:05:29.722Z,9.68
2022-11-03T04:05:52.532Z,10.35
2022-11-03T04:06:14.289Z,9.90
2022-11-03T04:06:36.178Z,10.13
2022-11-03T04:07:16.676Z,9.95
2022-11-03T04:07:47.610Z,9.90
2022-11-03T04:08:10.164Z,9.90
2022-11-03T04:08:31.957Z,10.18
2022-11-03T04:08:53.702Z,10.32
2022-11-03T04:09:15.845Z,10.63
2022-11-03T04:09:38.005Z,9.82
2022-11-03T04:10:00.081Z,9.85
2022-11-03T04:10:22.987Z,10.32
2022-11-03T04:11:06.123Z,10.50
2022-11-03T04:11:46.648Z,10.07
2022-11-03T04:12:27.533Z,10.65
2022-11-03T04:13:08.049Z,10.32
2022-11-03T04:13:48.455Z,10.20
2022-11-03T04:14:28.987Z,10.65
2022-11-03T04:15:09.450Z,10.20
2022-11-03T04:15:50.921Z,10.18
2022-11-03T04:16:31.498Z,9.80
2022-11-03T04:17:22.998Z,9.98
2022-11-03T04:18:05.830Z,10.20
2022-11-03T04:18:50.967Z,10.65
2022-11-03T04:19:31.364Z,10.23
2022-11-03T04:20:12.070Z,10.50
2022-11-03T04:20:53.045Z,10.75
2022-11-03T04:21:34.141Z,10.30
2022-11-03T04:22:15.155Z,10.10
2022-11-03T04:22:36.865Z,9.85
2022-11-03T04:22:59.453Z,9.57
2022-11-03T04:23:21.545Z,9.70
2022-11-03T04:23:43.765Z,9.48
2022-11-03T04:24:05.934Z,9.43
2022-11-03T04:24:27.673Z,9.52
2022-11-03T04:24:51.411Z,10.07
2022-11-03T04:25:13.536Z,9.57
2022-11-03T04:25:35.300Z,9.45
2022-11-03T04:25:57.773Z,9.25
2022-11-03T04:26:23.749Z,9.65
2022-11-03T04:26:45.495Z,10.02
2022-11-03T04:27:31.965Z,9.50
2022-11-03T04:27:53.798Z,9.63
2022-11-03T04:28:16.347Z,9.70
2022-11-03T04:28:38.498Z,9.70
2022-11-03T04:29:01.199Z,9.00
2022-11-03T04:29:23.413Z,8.90
2022-11-03T04:29:45.222Z,9.25
2022-11-03T04:30:07.364Z,9.32
2022-11-03T04:30:29.508Z,9.57
2022-11-03T04:30:54.663Z,9.25
2022-11-03T04:31:20.740Z,9.77
2022-11-03T04:31:42.527Z,10.07
2022-11-03T04:32:17.756Z,9.95
2022-11-03T04:32:39.852Z,10.52
2022-11-03T04:33:02.012Z,10.98
2022-11-03T04:33:23.845Z,10.55
2022-11-03T04:33:46.032Z,10.65
2022-11-03T04:34:12.473Z,11.32
2022-11-03T04:34:34.662Z,11.05
2022-11-03T04:34:56.416Z,11.35
2022-11-03T04:35:28.808Z,11.32
2022-11-03T04:35:51.685Z,12.73
2022-11-03T04:36:21.121Z,12.32
2022-11-03T04:36:42.857Z,11.40
2022-11-03T04:37:07.050Z,11.45
2022-11-03T04:37:29.055Z,11.10
2022-11-03T04:38:05.092Z,12.27
2022-11-03T04:38:29.106Z,13.45
2022-11-03T04:38:51.990Z,12.07
2022-11-03T04:39:17.427Z,11.63
2022-11-03T04:39:39.655Z,12.48
2022-11-03T04:40:02.535Z,11.93
2022-11-03T04:40:24.621Z,11.10
2022-11-03T04:40:50.416Z,11.40
2022-11-03T04:41:17.665Z,10.80
2022-11-03T04:41:40.045Z,11.00
2022-11-03T04:42:02.167Z,10.25
2022-11-03T04:42:24.344Z,10.23
2022-11-03T04:42:47.506Z,10.38
2022-11-03T04:43:16.973Z,10.35
2022-11-03T04:43:39.126Z,9.45
2022-11-03T04:44:01.209Z,9.60
2022-11-03T04:44:23.443Z,9.77
2022-11-03T04:44:46.932Z,9.32
2022-11-03T04:45:15.474Z,9.52
2022-11-03T04:45:38.365Z,9.70
2022-11-03T04:46:00.542Z,9.38
2022-11-03T04:46:27.398Z,9.50
2022-11-03T04:46:49.215Z,9.30
2022-11-03T04:47:13.401Z,9.45
2022-11-03T04:47:35.178Z,9.65
2022-11-03T04:47:58.904Z,9.20
2022-11-03T04:48:24.112Z,9.90
2022-11-03T04:48:47.576Z,10.07
2022-11-03T04:49:16.667Z,9.52
2022-11-03T04:49:38.922Z,9.63
2022-11-03T04:50:00.690Z,9.55
2022-11-03T04:50:23.931Z,9.68
2022-11-03T04:50:47.217Z,9.90
2022-11-03T04:51:16.163Z,9.57
2022-11-03T04:51:38.320Z,9.85
2022-11-03T04:52:00.436Z,9.85
2022-11-03T04:52:23.264Z,9.43
2022-11-03T04:52:45.542Z,9.93
2022-11-03T04:53:13.711Z,9.50
2022-11-03T04:53:35.656Z,10.02
2022-11-03T04:53:57.757Z,9.65
2022-11-03T04:54:23.219Z,8.85
2022-11-03T04:54:45.679Z,8.93
2022-11-03T04:55:14.834Z,9.30
2022-11-03T04:55:37.098Z,10.13
2022-11-03T04:56:07.027Z,9.82
2022-11-03T04:56:30.026Z,10.00
2022-11-03T04:56:52.396Z,9.57
2022-11-03T04:57:15.317Z,9.80
2022-11-03T04:57:37.089Z,9.65
2022-11-03T04:58:00.999Z,10.63
2022-11-03T04:58:24.447Z,10.05
2022-11-03T04:58:48.212Z,10.25
2022-11-03T04:59:14.618Z,10.07
2022-11-03T04:59:36.793Z,10.13
2022-11-03T04:59:58.526Z,10.00
2022-11-03T05:00:20.684Z,10.30
2022-11-03T05:00:42.859Z,10.05
2022-11-03T05:01:05.529Z,10.35
2022-11-03T05:01:28.729Z,10.70
2022-11-03T05:01:50.747Z,10.07
2022-11-03T05:02:16.971Z,9.50
2022-11-03T05:02:39.195Z,9.82
2022-11-03T05:03:01.025Z,9.93
2022-11-03T05:03:25.871Z,10.27
2022-11-03T05:03:50.292Z,9.93
2022-11-03T05:04:13.853Z,9.80
2022-11-03T05:04:35.987Z,9.95
2022-11-03T05:04:57.787Z,10.07
2022-11-03T05:05:24.858Z,9.93
2022-11-03T05:05:46.978Z,9.13
2022-11-03T05:06:13.544Z,9.50
2022-11-03T05:06:35.257Z,9.80
2022-11-03T05:06:57.494Z,10.07
2022-11-03T05:07:19.600Z,9.32
2022-11-03T05:07:41.742Z,9.50
2022-11-03T05:08:03.888Z,9.40
2022-11-03T05:08:26.044Z,9.23
2022-11-03T05:08:52.306Z,8.85
2022-11-03T05:09:19.710Z,9.25
2022-11-03T05:09:43.064Z,9.73
2022-11-03T05:10:06.502Z,9.23
2022-11-03T05:10:29.495Z,9.10
2022-11-03T05:10:51.650Z,9.35
2022-11-03T05:11:36.916Z,9.65
2022-11-03T05:11:59.521Z,10.10
2022-11-03T05:12:21.669Z,9.75
2022-11-03T05:12:44.382Z,10.32
2022-11-03T05:13:22.579Z,9.68
2022-11-03T05:13:44.534Z,9.73
2022-11-03T05:14:19.904Z,9.40
2022-11-03T05:14:42.152Z,9.52
2022-11-03T05:15:09.233Z,9.45
2022-11-03T05:15:31.109Z,9.93
2022-11-03T05:16:00.132Z,9.20
2022-11-03T05:16:22.402Z,9.07
2022-11-03T05:16:44.844Z,9.07
2022-11-03T05:17:24.118Z,8.55
2022-11-03T05:17:45.828Z,9.40
2022-11-03T05:18:14.834Z,9.57
2022-11-03T05:18:39.542Z,9.38
2022-11-03T05:19:01.740Z,9.10
2022-11-03T05:19:40.278Z,9.23
2022-11-03T05:20:03.530Z,8.45
2022-11-03T05:20:31.933Z,8.82
2022-11-03T05:21:03.515Z,8.52
2022-11-03T05:21:27.540Z,8.77
2022-11-03T05:21:51.234Z,9.38
2022-11-03T05:22:22.826Z,9.20
2022-11-03T05:22:44.544Z,9.20
2022-11-03T05:23:07.134Z,9.05
2022-11-03T05:23:31.810Z,9.10
2022-11-03T05:24:01.248Z,9.43
2022-11-03T05:24:26.035Z,9.05
2022-11-03T05:24:48.569Z,8.95
2022-11-03T05:25:39.303Z,8.68
2022-11-03T05:26:01.207Z,9.27
2022-11-03T05:26:31.784Z,9.80
2022-11-03T05:26:56.056Z,9.15
2022-11-03T05:27:22.564Z,9.10
2022-11-03T05:27:44.340Z,8.73
2022-11-03T05:28:20.571Z,8.85
2022-11-03T05:28:46.850Z,8.68
2022-11-03T05:29:18.543Z,8.48
2022-11-03T05:29:40.474Z,9.00
2022-11-03T05:30:02.658Z,9.00
2022-11-03T05:30:24.836Z,9.40
2022-11-03T05:30:47.889Z,9.07